Thursday, October 18, 2018, 2:15 PM GMT
Back to Local

CYGR, Iles De La Madeleineque.

Location: , , Canada Lat: 47.417
Local Time: 2:15 PM GMT (14:15 GMT) Lon: -61.783
Time Zone: GMT Elev: 32 ft

Show me the last for .
Show Decoded

2018-10-18 14:00 METAR CYGR 181400Z 31017G27KT 12SM -SHRA BKN015 04/02 A2942 RMK CU7 SLP964 =
2018-10-18 13:18 METAR CYGR 181318Z 29017G24KT 15SM -SHRA OVC016 05/02 A2942 RMK CU8 SLP965 =
2018-10-18 13:00 METAR CYGR 181300Z 31015G22KT 15SM BKN020 05/02 A2942 RMK CU7 SLP963 =
2018-10-18 12:35 METAR CYGR 181235Z 30013G21KT 15SM BKN018 05/03 A2942 RMK CU7 SLP964 =
2018-10-18 12:00 METAR CYGR 181200Z 31017G22KT 20SM -SHRA BKN018 BKN270 05/03 A2942 RMK CU7CI1 CI
                 TR SLP964 =
2018-10-18 11:00 METAR CYGR 181100Z 28019G25KT 20SM -SHRA BKN020 BKN270 06/02 A2941 RMK CU7CI1 CI
                 TR SLP960 =
2018-10-18 10:53 METAR CYGR 181053Z 28015G23KT 20SM -SHRA BKN020 BKN270 06/02 A2941 RMK CU7CI1 CI
                 TR SLP960 =
2018-10-18 10:18 METAR CYGR 181018Z 29018KT 20SM BKN020 BKN040 06/02 A2940 RMK CU6SC1 SC TR
                 SLP959 =
2018-10-18 10:00 METAR CYGR 181000Z 29016KT 15SM -SHRA BKN020 BKN040 06/03 A2941 RMK CU6SC1
                 SLP961 =
2018-10-18 09:27 METAR CYGR 180927Z 29014G20KT 15SM -SHRA BKN018 OVC050 07/03 A2941 RMK SC6SC2
                 CVCTV CLDS EMBD SLP961 =
2018-10-18 09:00 METAR CYGR 180900Z 29016KT 15SM BKN020 OVC050 07/03 A2941 RMK SC5SC3 SLP961 =
2018-10-18 02:00 METAR CYGR 180200Z 20011G21KT 15SM BKN026 08/05 A2952 RMK SC7 LAST STFD OBS/NEXT
                 180900 UTC SLP998 =
2018-10-18 01:00 METAR CYGR 180100Z 18013G21KT 15SM -SHRA BKN025 08/05 A2955 RMK SC7 CVCTV CLDS
                 EMBD SLP009 =
2018-10-18 00:35 METAR CYGR 180035Z 18013G20KT 15SM -SHRA BKN029 08/05 A2956 RMK SC7 CVCTV CLDS
                 EMBD SLP013 =
2018-10-18 00:00 METAR CYGR 180000Z CCA 19013G21KT 15SM BKN033 BKN063 08/04 A2958 RMK SC6SC1
                 SLP018 =
2018-10-17 23:00 METAR CYGR 172300Z 19012G20KT 15SM -SHRA BKN025 07/04 A2961 RMK CU7 SLP030 =
2018-10-17 22:00 METAR CYGR 172200Z 19011G21KT 15SM -SHRA SCT026 BKN045 BKN075 07/04 A2964 RMK
                 SC4SC2AC1 SLP040 =
2018-10-17 21:54 METAR CYGR 172154Z 19015G24KT 15SM -SHRA SCT026 BKN050 BKN070 07/04 A2964 RMK
                 SC4SC1AC2 CVCTV CLDS EMBD SLP040 =
2018-10-17 21:00 METAR CYGR 172100Z 21016G23KT 20SM FEW018 BKN048 BKN078 07/03 A2965 RMK
                 SC2SC4AC1 SLP042 =
2018-10-17 20:00 METAR CYGR 172000Z 21015G24KT 20SM BKN028 BKN150 08/02 A2967 RMK SC6AC1 SLP049 =
2018-10-17 19:00 METAR CYGR 171900Z 20017G24KT 20SM SCT031 BKN053 BKN140 BKN270 09/02 A2968 RMK
                 SC3SC2AC1CI1 SLP052 =
2018-10-17 18:00 METAR CYGR 171800Z 21014G20KT 20SM SCT031 SCT110 BKN150 BKN270 09/02 A2971 RMK
                 SC3AC1AC1CI1 SLP061 =
2018-10-17 17:00 METAR CYGR 171700Z 22011KT 20SM FEW030 SCT120 OVC160 09/02 A2973 RMK SC2AC1AC5
                 SLP068 =
2018-10-17 16:00 METAR CYGR 171600Z 23012G24KT 20SM BKN025 OVC080 08/02 A2975 RMK SC6AC2 SLP076 =
2018-10-17 15:00 METAR CYGR 171500Z 23013KT 20SM BKN029 BKN270 08/01 A2977 RMK SC5CI2 SLP082 =

Support USWX by starting your Amazon purchase here.